createdAt,value
2022-10-04T00:00:36.492Z,12.90
2022-10-04T00:03:10.179Z,12.92
2022-10-04T00:05:40.588Z,12.85
2022-10-04T00:08:25.843Z,12.86
2022-10-04T00:11:07.593Z,12.85
2022-10-04T00:13:36.487Z,12.90
2022-10-04T00:16:03.339Z,12.87
2022-10-04T00:18:44.751Z,12.89
2022-10-04T00:21:11.275Z,12.88
2022-10-04T00:23:37.686Z,12.90
2022-10-04T00:26:10.543Z,12.87
2022-10-04T00:28:36.853Z,12.85
2022-10-04T00:31:11.238Z,12.64
2022-10-04T00:33:37.606Z,12.75
2022-10-04T00:36:32.488Z,12.78
2022-10-04T00:39:04.959Z,12.71
2022-10-04T00:41:39.540Z,12.74
2022-10-04T00:44:16.679Z,12.78
2022-10-04T00:46:45.290Z,12.76
2022-10-04T00:49:14.079Z,12.78
2022-10-04T00:51:46.450Z,12.68
2022-10-04T00:54:38.625Z,12.61
2022-10-04T00:57:17.692Z,12.62
2022-10-04T00:59:58.000Z,12.66
2022-10-04T01:02:44.326Z,12.75
2022-10-04T01:05:17.739Z,12.66
2022-10-04T01:07:53.004Z,12.69
2022-10-04T01:10:31.848Z,12.70
2022-10-04T01:13:17.806Z,12.64
2022-10-04T01:15:53.318Z,12.66
2022-10-04T01:18:19.711Z,12.62
2022-10-04T01:21:05.472Z,12.60
2022-10-04T01:24:14.394Z,12.54
2022-10-04T01:26:43.115Z,12.42
2022-10-04T01:29:19.075Z,12.43
2022-10-04T01:31:48.434Z,12.49
2022-10-04T01:34:23.265Z,12.39
2022-10-04T01:36:53.584Z,12.48
2022-10-04T01:39:23.231Z,12.40
2022-10-04T01:42:10.933Z,12.42
2022-10-04T01:44:46.312Z,12.51
2022-10-04T01:47:16.666Z,12.37
2022-10-04T01:49:46.720Z,12.49
2022-10-04T01:52:13.084Z,12.50
2022-10-04T01:54:43.488Z,12.44
2022-10-04T01:57:18.183Z,12.34
2022-10-04T02:00:05.346Z,12.44
2022-10-04T02:02:41.268Z,12.50
2022-10-04T02:05:12.417Z,12.40
2022-10-04T02:07:40.736Z,12.46
2022-10-04T02:10:13.054Z,12.36
2022-10-04T02:12:46.291Z,12.43
2022-10-04T02:15:13.830Z,12.39
2022-10-04T02:17:44.130Z,12.31
2022-10-04T02:20:21.438Z,12.33
2022-10-04T02:22:54.927Z,12.33
2022-10-04T02:25:21.832Z,12.21
2022-10-04T02:27:53.672Z,12.38
2022-10-04T02:30:20.632Z,12.34
2022-10-04T02:33:00.312Z,12.41
2022-10-04T02:35:32.789Z,12.35
2022-10-04T02:38:22.525Z,12.28
2022-10-04T02:40:57.818Z,12.37
2022-10-04T02:43:30.350Z,12.22
2022-10-04T02:46:16.808Z,12.22
2022-10-04T02:48:55.327Z,12.17
2022-10-04T02:51:28.305Z,12.11
2022-10-04T02:54:07.166Z,12.18
2022-10-04T02:56:35.732Z,12.24
2022-10-04T02:59:06.752Z,12.20
2022-10-04T03:01:43.893Z,12.26
2022-10-04T03:04:15.047Z,12.26
2022-10-04T03:06:43.333Z,12.26
2022-10-04T03:09:09.995Z,12.42
2022-10-04T03:11:40.613Z,12.31
2022-10-04T03:14:15.991Z,12.24
2022-10-04T03:16:44.871Z,12.20
2022-10-04T03:19:14.301Z,12.22
2022-10-04T03:21:43.753Z,12.20
2022-10-04T03:24:28.792Z,12.23
2022-10-04T03:26:59.818Z,12.24
2022-10-04T03:29:28.313Z,12.20
2022-10-04T03:32:00.005Z,12.18
2022-10-04T03:34:33.541Z,12.20
2022-10-04T03:37:02.230Z,12.21
2022-10-04T03:39:33.447Z,12.13
2022-10-04T03:42:07.530Z,12.12
2022-10-04T03:44:34.860Z,12.17
2022-10-04T03:47:02.351Z,12.08
2022-10-04T03:49:33.551Z,12.06
2022-10-04T03:52:01.566Z,12.08
2022-10-04T03:54:29.159Z,12.02
2022-10-04T03:56:58.141Z,12.05
2022-10-04T03:59:27.973Z,11.91
2022-10-04T04:02:13.361Z,11.98
2022-10-04T04:04:52.569Z,11.91
2022-10-04T04:08:00.697Z,11.89
2022-10-04T04:10:33.843Z,12.01
2022-10-04T04:13:15.430Z,12.07
2022-10-04T04:15:43.338Z,11.92
2022-10-04T04:18:19.332Z,11.97
2022-10-04T04:20:48.102Z,11.94
2022-10-04T04:23:14.524Z,11.94
2022-10-04T04:25:44.248Z,11.95
2022-10-04T04:28:24.879Z,11.88
2022-10-04T04:30:57.502Z,11.87
2022-10-04T04:33:31.365Z,11.85
2022-10-04T04:36:06.325Z,11.90
2022-10-04T04:38:33.237Z,11.95
2022-10-04T04:41:09.848Z,11.90
2022-10-04T04:43:36.378Z,11.94
2022-10-04T04:46:26.512Z,11.93
2022-10-04T04:49:01.201Z,11.95
2022-10-04T04:51:29.233Z,12.00
2022-10-04T04:53:56.824Z,11.94
2022-10-04T04:56:27.763Z,11.92
2022-10-04T04:58:59.571Z,11.87
2022-10-04T05:01:29.193Z,11.84
2022-10-04T05:04:23.497Z,11.90
2022-10-04T05:07:04.307Z,11.89
2022-10-04T05:09:37.179Z,11.89
2022-10-04T05:12:15.352Z,11.87
2022-10-04T05:14:49.178Z,11.92
2022-10-04T05:17:22.883Z,11.83
2022-10-04T05:19:50.506Z,11.78
2022-10-04T05:22:21.196Z,11.80
2022-10-04T05:24:52.871Z,11.77
2022-10-04T05:27:39.229Z,11.72
2022-10-04T05:30:10.155Z,11.73
2022-10-04T05:32:50.673Z,11.71
2022-10-04T05:35:19.536Z,11.71
2022-10-04T05:38:09.522Z,11.78
2022-10-04T05:40:46.821Z,11.82
2022-10-04T05:43:35.306Z,11.85
2022-10-04T05:46:14.072Z,11.85
2022-10-04T05:48:43.349Z,11.77
2022-10-04T05:51:28.689Z,11.89
2022-10-04T05:53:59.726Z,11.83
2022-10-04T05:56:40.489Z,11.85
2022-10-04T05:59:35.235Z,11.91
2022-10-04T06:02:23.787Z,11.90
2022-10-04T06:05:08.232Z,11.91
2022-10-04T06:07:37.515Z,11.87
2022-10-04T06:10:26.008Z,11.82
2022-10-04T06:13:23.473Z,11.81
2022-10-04T06:16:04.364Z,11.86
2022-10-04T06:18:30.777Z,11.90
2022-10-04T06:21:21.393Z,11.96
2022-10-04T06:24:12.476Z,11.89
2022-10-04T06:26:47.191Z,11.91
2022-10-04T06:29:20.516Z,11.95
2022-10-04T06:32:04.930Z,11.99
2022-10-04T06:35:05.094Z,12.02
2022-10-04T06:37:56.512Z,12.07
2022-10-04T06:41:14.880Z,12.16
2022-10-04T06:44:18.727Z,12.13
2022-10-04T06:46:51.383Z,12.18
2022-10-04T06:49:46.924Z,12.11
2022-10-04T06:52:26.817Z,12.44
2022-10-04T06:55:13.475Z,12.62
2022-10-04T06:58:12.836Z,12.60
2022-10-04T07:00:52.633Z,12.78
2022-10-04T07:03:39.708Z,12.87
2022-10-04T07:06:11.262Z,12.98
2022-10-04T07:08:50.723Z,12.97
2022-10-04T07:11:30.153Z,12.93
2022-10-04T07:14:20.271Z,12.87
2022-10-04T07:16:51.070Z,13.02
2022-10-04T07:19:20.416Z,13.10
2022-10-04T07:21:56.015Z,13.18
2022-10-04T07:24:39.362Z,13.22
2022-10-04T07:27:10.437Z,13.25
2022-10-04T07:29:42.322Z,13.27
2022-10-04T07:32:22.575Z,13.31
2022-10-04T07:35:06.567Z,13.32
2022-10-04T07:37:55.079Z,13.44
2022-10-04T07:40:24.226Z,13.47
2022-10-04T07:43:13.349Z,13.32
2022-10-04T07:45:41.635Z,13.37
2022-10-04T07:48:17.701Z,13.41
2022-10-04T07:50:58.090Z,13.57
2022-10-04T07:53:53.513Z,13.53
2022-10-04T07:56:42.225Z,13.68
2022-10-04T07:59:41.094Z,13.65
2022-10-04T08:02:31.205Z,13.69
2022-10-04T08:05:07.714Z,13.67
2022-10-04T08:08:02.738Z,13.78
2022-10-04T08:10:44.736Z,13.88
2022-10-04T08:13:14.042Z,13.92
2022-10-04T08:15:43.127Z,13.99
2022-10-04T08:18:30.853Z,14.05
2022-10-04T08:21:01.902Z,14.09
2022-10-04T08:23:47.170Z,14.13
2022-10-04T08:26:51.339Z,14.23
2022-10-04T08:29:36.364Z,14.30
2022-10-04T08:32:10.381Z,14.44
2022-10-04T08:34:54.711Z,14.47
2022-10-04T08:37:33.195Z,14.48
2022-10-04T08:40:34.225Z,14.59
2022-10-04T08:43:37.394Z,14.70
2022-10-04T08:46:44.137Z,14.81
2022-10-04T08:49:20.021Z,14.81
2022-10-04T08:52:07.942Z,14.92
2022-10-04T08:54:57.080Z,14.98
2022-10-04T08:57:45.136Z,15.06
2022-10-04T09:00:30.474Z,15.12
2022-10-04T09:03:35.490Z,15.12
2022-10-04T09:06:38.984Z,15.22
2022-10-04T09:09:53.494Z,15.29
2022-10-04T09:12:47.195Z,15.33
2022-10-04T09:15:31.333Z,15.36
2022-10-04T09:18:13.440Z,15.43
2022-10-04T09:20:41.093Z,15.47
2022-10-04T09:23:26.991Z,15.46
2022-10-04T09:26:01.494Z,15.50
2022-10-04T09:28:38.582Z,15.55
2022-10-04T09:31:20.300Z,15.55
2022-10-04T09:34:03.346Z,15.60
2022-10-04T09:36:40.697Z,15.66
2022-10-04T09:39:45.574Z,15.65
2022-10-04T09:42:35.617Z,15.73
2022-10-04T09:45:06.030Z,15.83
2022-10-04T09:47:43.805Z,15.85
2022-10-04T09:50:17.442Z,15.91
2022-10-04T09:52:55.481Z,15.98
2022-10-04T09:55:42.094Z,16.01
2022-10-04T09:58:25.195Z,16.05
2022-10-04T10:01:09.890Z,16.11
2022-10-04T10:03:46.143Z,16.12
2022-10-04T10:06:24.711Z,16.20
2022-10-04T10:09:18.398Z,16.28
2022-10-04T10:12:43.109Z,16.29
2022-10-04T10:15:36.459Z,16.33
2022-10-04T10:18:24.220Z,16.35
2022-10-04T10:20:59.289Z,16.39
2022-10-04T10:23:26.442Z,16.44
2022-10-04T10:26:14.744Z,16.44
2022-10-04T10:29:03.045Z,16.50
2022-10-04T10:32:04.294Z,16.53
2022-10-04T10:34:45.840Z,16.52
2022-10-04T10:37:35.677Z,16.54
2022-10-04T10:41:00.092Z,16.56
2022-10-04T10:43:46.505Z,16.61
2022-10-04T10:46:39.484Z,16.65
2022-10-04T10:49:20.085Z,16.71
2022-10-04T10:52:07.300Z,16.71
2022-10-04T10:55:07.729Z,16.81
2022-10-04T10:58:05.143Z,16.86
2022-10-04T11:00:31.488Z,16.87
2022-10-04T11:03:32.367Z,16.87
2022-10-04T11:06:01.910Z,16.91
2022-10-04T11:08:56.980Z,16.97
2022-10-04T11:12:04.162Z,17.01
2022-10-04T11:14:41.009Z,17.05
2022-10-04T11:17:37.871Z,17.08
2022-10-04T11:20:38.171Z,17.10
2022-10-04T11:23:14.017Z,17.14
2022-10-04T11:26:04.005Z,17.14
2022-10-04T11:28:53.635Z,17.16
2022-10-04T11:31:26.148Z,17.19
2022-10-04T11:34:31.803Z,17.22
2022-10-04T11:37:14.510Z,17.31
2022-10-04T11:39:56.115Z,17.32
2022-10-04T11:42:43.805Z,17.35
2022-10-04T11:45:38.326Z,17.35
2022-10-04T11:48:35.077Z,17.42
2022-10-04T11:51:10.965Z,17.43
2022-10-04T11:54:13.094Z,17.43
2022-10-04T11:57:10.113Z,17.49
2022-10-04T12:00:01.780Z,17.55
2022-10-04T12:02:53.413Z,17.56
2022-10-04T12:05:38.400Z,17.59
2022-10-04T12:08:23.047Z,17.62
2022-10-04T12:11:27.019Z,17.67
2022-10-04T12:14:04.020Z,17.67
2022-10-04T12:17:12.673Z,17.68
2022-10-04T12:19:52.246Z,17.61
2022-10-04T12:22:52.951Z,17.77
2022-10-04T12:26:01.389Z,17.71
2022-10-04T12:28:39.807Z,17.63
2022-10-04T12:31:24.856Z,17.71
2022-10-04T12:34:14.778Z,17.67
2022-10-04T12:37:13.759Z,17.75
2022-10-04T12:39:56.745Z,17.75
2022-10-04T12:42:36.310Z,17.72
2022-10-04T12:45:30.607Z,17.69
2022-10-04T12:48:33.070Z,17.69
2022-10-04T12:51:21.459Z,17.72
2022-10-04T12:54:29.725Z,17.72
2022-10-04T12:57:14.720Z,17.76
2022-10-04T13:00:10.968Z,17.72
2022-10-04T13:03:02.545Z,17.67
2022-10-04T13:05:47.484Z,17.68
2022-10-04T13:08:39.864Z,17.71
2022-10-04T13:11:06.553Z,17.64
2022-10-04T13:13:41.886Z,17.64
2022-10-04T13:19:50.285Z,17.63
2022-10-04T13:22:55.375Z,17.65
2022-10-04T13:25:30.228Z,17.65
2022-10-04T13:28:11.735Z,17.65
2022-10-04T13:30:47.383Z,17.65
2022-10-04T13:33:28.968Z,17.78
2022-10-04T13:36:08.524Z,17.75
2022-10-04T13:38:37.997Z,17.72
2022-10-04T13:41:18.476Z,17.77
2022-10-04T13:43:56.980Z,17.77
2022-10-04T13:46:36.413Z,17.84
2022-10-04T13:49:18.346Z,17.79
2022-10-04T13:52:39.355Z,17.82
2022-10-04T13:55:24.005Z,17.81
2022-10-04T13:57:54.774Z,17.78
2022-10-04T14:00:55.495Z,17.75
2022-10-04T14:03:40.279Z,17.82
2022-10-04T14:06:28.297Z,17.80
2022-10-04T14:09:36.923Z,17.77
2022-10-04T14:12:25.802Z,17.78
2022-10-04T14:15:10.384Z,17.77
2022-10-04T14:17:49.397Z,17.72
2022-10-04T14:20:44.478Z,17.72
2022-10-04T14:23:33.795Z,17.73
2022-10-04T14:26:52.079Z,17.69
2022-10-04T14:29:26.180Z,17.74
2022-10-04T14:32:03.780Z,17.67
2022-10-04T14:34:53.676Z,17.64
2022-10-04T14:37:45.081Z,17.65
2022-10-04T14:40:36.563Z,17.64
2022-10-04T14:43:21.219Z,17.60
2022-10-04T14:46:09.150Z,17.63
2022-10-04T14:48:42.540Z,17.58
2022-10-04T14:51:41.628Z,17.58
2022-10-04T14:54:26.163Z,17.55
2022-10-04T14:57:25.057Z,17.52
2022-10-04T15:00:08.667Z,17.54
2022-10-04T15:02:42.645Z,17.56
2022-10-04T15:05:41.892Z,17.58
2022-10-04T15:08:41.512Z,17.55
2022-10-04T15:11:12.466Z,17.51
2022-10-04T15:13:55.637Z,17.54
2022-10-04T15:16:45.527Z,17.50
2022-10-04T15:19:21.245Z,17.46
2022-10-04T15:21:53.629Z,17.45
2022-10-04T15:24:27.983Z,17.49
2022-10-04T15:27:28.745Z,17.44
2022-10-04T15:30:11.977Z,17.44
2022-10-04T15:32:50.249Z,17.40
2022-10-04T15:35:25.683Z,17.37
2022-10-04T15:38:07.187Z,17.34
2022-10-04T15:40:41.961Z,17.32
2022-10-04T15:43:20.226Z,17.29
2022-10-04T15:46:00.769Z,17.28
2022-10-04T15:48:48.386Z,17.24
2022-10-04T15:51:14.774Z,17.21
2022-10-04T15:54:05.856Z,17.17
2022-10-04T15:56:41.494Z,17.12
2022-10-04T15:59:27.070Z,17.09
2022-10-04T16:02:00.379Z,17.02
2022-10-04T16:04:55.825Z,17.07
2022-10-04T16:07:51.013Z,17.02
2022-10-04T16:10:24.129Z,17.02
2022-10-04T16:12:53.877Z,16.95
2022-10-04T16:15:31.375Z,16.92
2022-10-04T16:18:10.096Z,16.89
2022-10-04T16:20:58.761Z,16.86
2022-10-04T16:23:44.074Z,16.83
2022-10-04T16:26:16.286Z,16.83
2022-10-04T16:29:12.654Z,16.78
2022-10-04T16:31:50.110Z,16.75
2022-10-04T16:34:45.667Z,16.71
2022-10-04T16:37:33.550Z,16.71
2022-10-04T16:40:09.677Z,16.76
2022-10-04T16:42:46.114Z,16.75
2022-10-04T16:45:43.515Z,16.70
2022-10-04T16:48:29.134Z,16.63
2022-10-04T16:51:05.319Z,16.60
2022-10-04T16:53:53.874Z,16.55
2022-10-04T16:56:30.136Z,16.49
2022-10-04T16:59:05.437Z,16.44
2022-10-04T17:01:38.559Z,16.44
2022-10-04T17:04:05.711Z,16.41
2022-10-04T17:06:44.129Z,16.38
2022-10-04T17:09:47.874Z,16.35
2022-10-04T17:12:19.164Z,16.28
2022-10-04T17:14:53.021Z,16.28
2022-10-04T17:17:46.824Z,16.26
2022-10-04T17:24:10.796Z,16.37
2022-10-04T17:27:03.225Z,16.36
2022-10-04T17:30:08.131Z,16.34
2022-10-04T17:32:47.297Z,16.31
2022-10-04T17:35:32.797Z,16.28
2022-10-04T17:38:25.986Z,16.21
2022-10-04T17:41:16.035Z,16.13
2022-10-04T17:44:19.304Z,16.12
2022-10-04T17:46:50.929Z,16.12
2022-10-04T17:50:09.187Z,15.97
2022-10-04T17:53:03.867Z,15.96
2022-10-04T17:55:48.834Z,15.88
2022-10-04T17:58:47.797Z,15.92
2022-10-04T18:01:29.292Z,15.83
2022-10-04T18:04:23.575Z,15.84
2022-10-04T18:06:56.773Z,15.84
2022-10-04T18:09:41.364Z,15.78
2022-10-04T18:12:29.040Z,15.76
2022-10-04T18:15:07.339Z,15.75
2022-10-04T18:17:46.164Z,15.78
2022-10-04T18:20:53.046Z,15.75
2022-10-04T18:23:35.161Z,15.75
2022-10-04T18:26:18.422Z,15.70
2022-10-04T18:28:47.427Z,15.68
2022-10-04T18:31:13.797Z,15.64
2022-10-04T18:33:40.289Z,15.61
2022-10-04T18:36:27.363Z,15.56
2022-10-04T18:39:11.760Z,15.61
2022-10-04T18:41:54.345Z,15.69
2022-10-04T18:44:29.516Z,15.62
2022-10-04T18:46:59.378Z,15.62
2022-10-04T18:49:31.035Z,15.61
2022-10-04T18:52:10.713Z,15.58
2022-10-04T18:54:49.345Z,15.64
2022-10-04T18:57:33.411Z,15.59
2022-10-04T19:00:31.664Z,15.56
2022-10-04T19:03:18.151Z,15.64
2022-10-04T19:06:01.293Z,15.68
2022-10-04T19:08:53.263Z,15.59
2022-10-04T19:11:29.082Z,15.66
2022-10-04T19:14:25.937Z,15.63
2022-10-04T19:17:08.865Z,15.65
2022-10-04T19:20:04.271Z,15.69
2022-10-04T19:22:50.016Z,15.64
2022-10-04T19:25:27.211Z,15.62
2022-10-04T19:28:08.755Z,15.61
2022-10-04T19:30:43.301Z,15.56
2022-10-04T19:33:17.589Z,15.63
2022-10-04T19:36:22.254Z,15.58
2022-10-04T19:39:26.061Z,15.54
2022-10-04T19:41:52.342Z,15.58
2022-10-04T19:44:42.450Z,15.61
2022-10-04T19:47:35.104Z,15.60
2022-10-04T19:50:21.450Z,15.58
2022-10-04T19:52:57.655Z,15.45
2022-10-04T19:55:41.433Z,15.55
2022-10-04T19:58:22.699Z,15.63
2022-10-04T20:00:49.237Z,15.60
2022-10-04T20:03:16.165Z,15.64
2022-10-04T20:05:48.684Z,15.58
2022-10-04T20:08:17.242Z,15.63
2022-10-04T20:10:44.184Z,15.58
2022-10-04T20:13:10.762Z,15.54
2022-10-04T20:15:37.735Z,15.49
2022-10-04T20:18:31.898Z,15.55
2022-10-04T20:21:01.568Z,15.62
2022-10-04T20:23:40.467Z,15.54
2022-10-04T20:26:08.520Z,15.60
2022-10-04T20:28:41.730Z,15.60
2022-10-04T20:31:10.804Z,15.52
2022-10-04T20:33:38.901Z,15.60
2022-10-04T20:36:09.864Z,15.64
2022-10-04T20:38:49.958Z,15.67
2022-10-04T20:41:28.547Z,15.65
2022-10-04T20:44:01.438Z,15.61
2022-10-04T20:46:38.058Z,15.63
2022-10-04T20:49:17.942Z,15.60
2022-10-04T20:51:50.829Z,15.62
2022-10-04T20:54:22.486Z,15.64
2022-10-04T20:56:50.331Z,15.68
2022-10-04T20:59:17.870Z,15.61
2022-10-04T21:02:04.427Z,15.67
2022-10-04T21:04:41.473Z,15.65
2022-10-04T21:07:12.480Z,15.67
2022-10-04T21:09:41.363Z,15.63
2022-10-04T21:12:30.720Z,15.53
2022-10-04T21:15:21.642Z,15.58
2022-10-04T21:18:03.259Z,15.65
2022-10-04T21:20:49.321Z,15.70
2022-10-04T21:23:33.733Z,15.68
2022-10-04T21:26:23.381Z,15.68
2022-10-04T21:28:54.065Z,15.67
2022-10-04T21:31:20.523Z,15.71
2022-10-04T21:33:47.124Z,15.68
2022-10-04T21:36:13.711Z,15.68
2022-10-04T21:38:40.527Z,15.68
2022-10-04T21:41:07.366Z,15.61
2022-10-04T21:43:34.431Z,15.64
2022-10-04T21:46:01.087Z,15.60
2022-10-04T21:48:27.660Z,15.68
2022-10-04T21:50:55.174Z,15.74
2022-10-04T21:53:22.294Z,15.73
2022-10-04T21:55:49.087Z,15.66
2022-10-04T21:58:16.087Z,15.56
2022-10-04T22:00:42.569Z,15.63
2022-10-04T22:03:09.000Z,15.68
2022-10-04T22:05:35.512Z,15.64
2022-10-04T22:08:02.010Z,15.67
2022-10-04T22:10:28.746Z,15.61
2022-10-04T22:12:56.967Z,15.54
2022-10-04T22:15:25.703Z,15.58
2022-10-04T22:17:52.271Z,15.60
2022-10-04T22:20:19.146Z,15.58
2022-10-04T22:22:45.644Z,15.62
2022-10-04T22:25:17.990Z,15.62
2022-10-04T22:27:45.273Z,15.62
2022-10-04T22:30:21.688Z,15.63
2022-10-04T22:32:48.728Z,15.69
2022-10-04T22:35:19.155Z,15.60
2022-10-04T22:37:46.760Z,15.63
2022-10-04T22:40:22.011Z,15.62
2022-10-04T22:42:54.053Z,15.61
2022-10-04T22:45:27.052Z,15.61
2022-10-04T22:47:55.966Z,15.64
2022-10-04T22:50:32.207Z,15.65
2022-10-04T22:53:03.187Z,15.72
2022-10-04T22:55:29.692Z,15.61
2022-10-04T22:57:56.307Z,15.62
2022-10-04T23:00:22.728Z,15.61
2022-10-04T23:02:49.211Z,15.61
2022-10-04T23:05:18.522Z,15.64
2022-10-04T23:07:46.436Z,15.67
2022-10-04T23:10:15.216Z,15.69
2022-10-04T23:12:45.523Z,15.71
2022-10-04T23:15:20.091Z,15.67
2022-10-04T23:17:53.973Z,15.63
2022-10-04T23:20:20.549Z,15.63
2022-10-04T23:22:49.103Z,15.59
2022-10-04T23:25:19.989Z,15.57
2022-10-04T23:27:47.772Z,15.64
2022-10-04T23:30:20.291Z,15.63
2022-10-04T23:32:49.325Z,15.68
2022-10-04T23:35:29.933Z,15.63
2022-10-04T23:37:56.635Z,15.59
2022-10-04T23:40:24.777Z,15.63
2022-10-04T23:42:54.886Z,15.61
2022-10-04T23:45:23.751Z,15.56
2022-10-04T23:47:54.127Z,15.57
2022-10-04T23:50:33.999Z,15.55
2022-10-04T23:53:06.506Z,15.57
2022-10-04T23:55:38.780Z,15.61
2022-10-04T23:58:20.218Z,15.66
